Time;durP1;ratioP1;P1;durP2;ratioP2;P2;SDS_P1;SDS_P2;PMS_P1;PMS_P2;Temp;Humidity;BMP_temperature;BMP_pressure;BME280_temperature;BME280_humidity;BME280_pressure;Samples;Min_cycle;Max_cycle;Signal;HPM_P1;HPM_P2
2022/03/11 00:01:24;;;;;;;21.10;12.00;;;;;;;;;;6059796;23;20260;-52
2022/03/11 00:03:50;;;;;;;22.15;12.40;;;;;;;;;;6063421;23;20053;-52
2022/03/11 00:06:15;;;;;;;21.38;11.48;;;;;;;;;;6060561;23;20022;-54
2022/03/11 00:08:40;;;;;;;21.45;11.63;;;;;;;;;;6056930;23;20019;-51
2022/03/11 00:11:06;;;;;;;19.92;12.10;;;;;;;;;;6059203;23;20014;-48
2022/03/11 00:13:31;;;;;;;24.52;12.48;;;;;;;;;;6062605;23;20019;-52
2022/03/11 00:15:56;;;;;;;17.88;11.43;;;;;;;;;;6060472;23;20025;-50
2022/03/11 00:18:22;;;;;;;19.67;12.60;;;;;;;;;;6064212;23;20121;-49
2022/03/11 00:20:47;;;;;;;23.40;11.68;;;;;;;;;;6060383;23;20031;-52
2022/03/11 00:23:12;;;;;;;17.52;10.93;;;;;;;;;;6064167;23;20023;-53
2022/03/11 00:25:38;;;;;;;18.42;11.30;;;;;;;;;;6062921;23;20023;-50
2022/03/11 00:28:03;;;;;;;22.10;12.93;;;;;;;;;;6064705;23;20018;-51
2022/03/11 00:30:29;;;;;;;18.02;10.50;;;;;;;;;;6062126;23;20429;-47
2022/03/11 00:32:54;;;;;;;17.98;10.55;;;;;;;;;;6064472;23;20011;-49
2022/03/11 00:35:20;;;;;;;21.85;11.75;;;;;;;;;;6063636;23;20038;-52
2022/03/11 00:37:46;;;;;;;18.33;10.68;;;;;;;;;;6068635;23;20027;-53
2022/03/11 00:40:14;;;;;;;17.38;11.40;;;;;;;;;;6039602;23;20103;-54
2022/03/11 00:42:42;;;;;;;19.05;11.77;;;;;;;;;;6068741;23;20014;-53
2022/03/11 00:45:08;;;;;;;21.23;10.27;;;;;;;;;;6064488;23;20022;-55
2022/03/11 00:47:33;;;;;;;17.02;10.80;;;;;;;;;;6065143;23;20069;-53
2022/03/11 00:49:58;;;;;;;19.27;11.25;;;;;;;;;;6065915;23;20018;-51
2022/03/11 00:52:24;;;;;;;18.45;11.85;;;;;;;;;;6067112;23;20011;-55
2022/03/11 00:54:49;;;;;;;19.65;12.07;;;;;;;;;;6065731;23;20445;-56
2022/03/11 00:57:16;;;;;;;16.02;10.48;;;;;;;;;;6066699;23;20030;-54
2022/03/11 00:59:41;;;;;;;19.75;12.05;;;;;;;;;;6067374;23;20006;-54
2022/03/11 01:02:06;;;;;;;17.25;11.13;;;;;;;;;;6066941;23;20557;-54
2022/03/11 01:04:32;;;;;;;22.52;12.77;;;;;;;;;;6066316;23;20026;-52
2022/03/11 01:06:57;;;;;;;18.55;11.35;;;;;;;;;;6067284;23;20059;-52
2022/03/11 01:09:22;;;;;;;18.60;11.55;;;;;;;;;;6065191;23;20035;-54
2022/03/11 01:11:47;;;;;;;18.83;11.15;;;;;;;;;;6067696;23;20385;-50
2022/03/11 01:14:13;;;;;;;18.15;10.73;;;;;;;;;;6065489;23;20019;-54
2022/03/11 01:16:38;;;;;;;18.40;11.88;;;;;;;;;;6067155;23;20038;-55
2022/03/11 01:19:03;;;;;;;18.67;12.02;;;;;;;;;;6066245;23;20022;-53
2022/03/11 01:21:28;;;;;;;17.83;11.00;;;;;;;;;;6066066;23;20062;-53
2022/03/11 01:23:54;;;;;;;16.27;9.57;;;;;;;;;;6066214;23;20040;-50
2022/03/11 01:26:19;;;;;;;14.27;10.18;;;;;;;;;;6041401;23;20114;-51
2022/03/11 01:28:45;;;;;;;18.98;10.98;;;;;;;;;;6065467;23;20034;-53
2022/03/11 01:31:11;;;;;;;17.55;10.18;;;;;;;;;;6066718;23;20015;-51
2022/03/11 01:33:38;;;;;;;16.58;9.90;;;;;;;;;;6064776;23;20014;-53
2022/03/11 01:36:03;;;;;;;16.05;10.35;;;;;;;;;;6066755;23;20019;-50
2022/03/11 01:38:28;;;;;;;17.00;9.48;;;;;;;;;;6064258;23;20019;-49
2022/03/11 01:40:53;;;;;;;15.25;9.60;;;;;;;;;;6067336;23;20011;-52
2022/03/11 01:43:19;;;;;;;21.20;11.73;;;;;;;;;;6064099;23;20021;-55
2022/03/11 01:45:44;;;;;;;16.05;9.95;;;;;;;;;;6066645;23;20011;-53
2022/03/11 01:48:10;;;;;;;23.30;11.55;;;;;;;;;;6064243;23;20078;-49
2022/03/11 01:50:37;;;;;;;19.52;10.63;;;;;;;;;;6067007;23;20018;-50
2022/03/11 01:53:03;;;;;;;20.58;10.68;;;;;;;;;;6064152;23;20050;-55
2022/03/11 01:55:28;;;;;;;15.98;9.57;;;;;;;;;;6066895;23;20018;-51
2022/03/11 01:57:53;;;;;;;17.20;10.88;;;;;;;;;;6065042;23;20018;-51
2022/03/11 02:00:19;;;;;;;19.80;10.18;;;;;;;;;;6067426;23;20015;-51
2022/03/11 02:02:44;;;;;;;18.45;11.30;;;;;;;;;;6065790;23;20110;-54
2022/03/11 02:05:09;;;;;;;15.73;9.90;;;;;;;;;;6066796;23;20011;-53
2022/03/11 02:07:34;;;;;;;15.45;10.00;;;;;;;;;;6040270;23;20237;-52
2022/03/11 02:10:00;;;;;;;15.98;10.35;;;;;;;;;;6041871;23;20625;-55
2022/03/11 02:12:28;;;;;;;17.80;10.80;;;;;;;;;;6064591;23;20077;-54
2022/03/11 02:14:54;;;;;;;17.00;9.60;;;;;;;;;;6068002;23;20098;-54
2022/03/11 02:17:19;;;;;;;19.05;11.30;;;;;;;;;;6064047;23;20030;-48
2022/03/11 02:19:44;;;;;;;17.88;10.68;;;;;;;;;;6068744;23;20032;-50
2022/03/11 02:22:10;;;;;;;17.02;10.73;;;;;;;;;;6039081;23;20026;-52
2022/03/11 02:24:35;;;;;;;14.00;9.82;;;;;;;;;;6067194;23;20017;-50
2022/03/11 02:27:01;;;;;;;15.85;10.98;;;;;;;;;;6063531;23;20025;-53
2022/03/11 02:29:26;;;;;;;15.75;10.48;;;;;;;;;;6066694;23;20022;-54
2022/03/11 02:31:51;;;;;;;16.45;10.43;;;;;;;;;;6064166;23;20395;-54
2022/03/11 02:34:16;;;;;;;21.23;9.75;;;;;;;;;;6065681;23;20583;-53
2022/03/11 02:36:42;;;;;;;16.85;10.35;;;;;;;;;;6064929;23;20553;-54
2022/03/11 02:39:07;;;;;;;15.02;9.45;;;;;;;;;;6066410;23;20038;-51
2022/03/11 02:41:33;;;;;;;15.73;9.70;;;;;;;;;;6064583;23;20038;-53
2022/03/11 02:43:58;;;;;;;14.43;9.27;;;;;;;;;;6066420;23;20051;-54
2022/03/11 02:46:23;;;;;;;15.80;9.65;;;;;;;;;;6063484;23;20025;-54
2022/03/11 02:48:49;;;;;;;14.52;9.32;;;;;;;;;;6066414;23;20041;-50
2022/03/11 02:51:14;;;;;;;19.90;9.57;;;;;;;;;;6063647;23;20015;-50
2022/03/11 02:53:42;;;;;;;18.48;9.32;;;;;;;;;;6066369;23;20069;-55
2022/03/11 02:56:08;;;;;;;15.68;8.90;;;;;;;;;;6063876;23;20476;-50
2022/03/11 02:58:34;;;;;;;19.27;8.57;;;;;;;;;;6066708;23;20011;-52
2022/03/11 03:01:03;;;;;;;17.58;10.05;;;;;;;;;;6065079;23;20022;-55
2022/03/11 03:03:28;;;;;;;13.70;8.52;;;;;;;;;;6066534;23;20072;-53
2022/03/11 03:05:53;;;;;;;14.05;8.80;;;;;;;;;;6064876;23;20015;-53
2022/03/11 03:08:18;;;;;;;13.45;8.15;;;;;;;;;;6066695;23;20015;-49
2022/03/11 03:10:44;;;;;;;14.25;9.13;;;;;;;;;;6065653;23;20063;-54
2022/03/11 03:13:09;;;;;;;14.98;8.48;;;;;;;;;;6065894;23;20011;-51
2022/03/11 03:15:34;;;;;;;11.80;8.02;;;;;;;;;;6065807;23;20011;-50
2022/03/11 03:18:00;;;;;;;13.60;7.32;;;;;;;;;;6064229;23;20026;-54
2022/03/11 03:20:25;;;;;;;12.80;7.32;;;;;;;;;;6065878;23;20014;-53
2022/03/11 03:22:50;;;;;;;13.48;7.60;;;;;;;;;;6065884;23;20019;-52
2022/03/11 03:25:16;;;;;;;11.77;6.57;;;;;;;;;;6063637;23;20099;-52
2022/03/11 03:27:41;;;;;;;12.80;7.70;;;;;;;;;;6066762;23;20429;-50
2022/03/11 03:30:07;;;;;;;13.95;6.60;;;;;;;;;;6063262;23;20094;-52
2022/03/11 03:32:32;;;;;;;15.18;8.02;;;;;;;;;;6065140;23;20015;-54
2022/03/11 03:34:57;;;;;;;10.45;7.43;;;;;;;;;;6063436;23;20014;-52
2022/03/11 03:37:23;;;;;;;10.70;7.47;;;;;;;;;;6065401;23;20078;-52
2022/03/11 03:39:48;;;;;;;14.35;7.57;;;;;;;;;;6064485;23;20007;-52
2022/03/11 03:42:13;;;;;;;13.43;7.47;;;;;;;;;;6063728;23;20112;-53
2022/03/11 03:44:38;;;;;;;10.18;7.10;;;;;;;;;;6067391;23;20066;-53
2022/03/11 03:47:04;;;;;;;12.27;6.97;;;;;;;;;;6065169;23;20015;-55
2022/03/11 03:49:30;;;;;;;13.52;6.65;;;;;;;;;;6065271;23;20019;-52
2022/03/11 03:51:55;;;;;;;10.25;6.20;;;;;;;;;;6063598;23;20019;-52
2022/03/11 03:54:21;;;;;;;12.00;6.22;;;;;;;;;;6066187;23;20590;-52
2022/03/11 03:56:46;;;;;;;9.55;6.80;;;;;;;;;;6065699;23;20026;-55
2022/03/11 03:59:12;;;;;;;13.98;7.80;;;;;;;;;;6064942;23;20662;-51
2022/03/11 04:01:38;;;;;;;13.70;8.52;;;;;;;;;;6066045;23;20019;-50
2022/03/11 04:04:04;;;;;;;9.88;6.45;;;;;;;;;;6066187;23;20014;-55
2022/03/11 04:06:33;;;;;;;10.77;6.82;;;;;;;;;;6062665;23;20046;-54
2022/03/11 04:08:59;;;;;;;11.70;6.97;;;;;;;;;;6065648;23;20123;-54
2022/03/11 04:11:25;;;;;;;17.63;7.50;;;;;;;;;;6064688;23;20014;-51
2022/03/11 04:13:50;;;;;;;10.15;6.35;;;;;;;;;;6062221;23;20023;-50
2022/03/11 04:16:16;;;;;;;11.48;6.68;;;;;;;;;;6064347;23;20627;-50
2022/03/11 04:18:42;;;;;;;9.68;6.88;;;;;;;;;;6066408;23;20028;-51
2022/03/11 04:21:07;;;;;;;10.10;6.50;;;;;;;;;;6057892;23;20075;-51
2022/03/11 04:23:32;;;;;;;13.90;7.63;;;;;;;;;;6064147;23;20086;-55
2022/03/11 04:25:57;;;;;;;10.93;6.45;;;;;;;;;;6065766;23;20029;-53
2022/03/11 04:28:23;;;;;;;12.85;6.55;;;;;;;;;;6062484;23;20079;-52
2022/03/11 04:30:48;;;;;;;9.35;7.00;;;;;;;;;;6058101;23;20034;-52
2022/03/11 04:33:13;;;;;;;11.02;7.80;;;;;;;;;;6064945;23;20034;-52
2022/03/11 04:35:39;;;;;;;10.30;6.90;;;;;;;;;;6066448;23;20067;-52
2022/03/11 04:38:04;;;;;;;11.52;7.82;;;;;;;;;;6064458;23;20023;-51
2022/03/11 04:40:29;;;;;;;9.90;6.57;;;;;;;;;;6064946;23;20015;-51
2022/03/11 04:42:54;;;;;;;15.77;7.85;;;;;;;;;;6064804;23;20019;-53
2022/03/11 04:45:20;;;;;;;13.82;9.57;;;;;;;;;;6040499;23;20458;-50
2022/03/11 04:47:46;;;;;;;11.00;7.57;;;;;;;;;;6065359;23;20015;-49
2022/03/11 04:50:11;;;;;;;11.05;7.30;;;;;;;;;;6066079;23;20051;-52
2022/03/11 04:52:36;;;;;;;10.73;6.75;;;;;;;;;;6063655;23;20015;-52
2022/03/11 04:55:02;;;;;;;8.48;5.80;;;;;;;;;;6066535;23;20018;-54
2022/03/11 04:57:28;;;;;;;8.25;5.80;;;;;;;;;;6067388;23;20047;-52
2022/03/11 04:59:53;;;;;;;9.77;5.70;;;;;;;;;;6065900;23;20030;-52
2022/03/11 05:02:25;;;;;;;9.50;6.40;;;;;;;;;;6064238;23;20023;-50
2022/03/11 05:04:50;;;;;;;15.13;6.93;;;;;;;;;;6066401;23;20063;-53
2022/03/11 05:07:15;;;;;;;12.20;7.40;;;;;;;;;;6065381;23;20077;-52
2022/03/11 05:09:41;;;;;;;12.57;6.65;;;;;;;;;;6066428;23;20113;-52
2022/03/11 05:12:06;;;;;;;11.20;6.35;;;;;;;;;;6068175;23;20051;-50
2022/03/11 05:14:32;;;;;;;8.52;5.95;;;;;;;;;;6065227;23;20014;-52
2022/03/11 05:16:57;;;;;;;22.75;6.70;;;;;;;;;;6067614;23;20023;-52
2022/03/11 05:19:24;;;;;;;16.27;6.32;;;;;;;;;;6065680;23;20051;-51
2022/03/11 05:21:49;;;;;;;8.20;6.43;;;;;;;;;;6067734;23;20038;-51
2022/03/11 05:24:14;;;;;;;13.00;6.65;;;;;;;;;;6065115;23;20030;-51
2022/03/11 05:26:41;;;;;;;10.98;6.80;;;;;;;;;;6068183;23;20023;-53
2022/03/11 05:29:07;;;;;;;9.75;5.78;;;;;;;;;;6064760;23;20023;-53
2022/03/11 05:31:32;;;;;;;13.63;6.60;;;;;;;;;;6067251;23;20011;-48
2022/03/11 05:33:57;;;;;;;11.07;6.07;;;;;;;;;;6064393;23;20066;-51
2022/03/11 05:36:23;;;;;;;12.10;7.05;;;;;;;;;;6067011;23;20031;-49
2022/03/11 05:38:48;;;;;;;10.48;5.97;;;;;;;;;;6064020;23;20009;-51
2022/03/11 05:41:14;;;;;;;10.80;6.30;;;;;;;;;;6067745;23;20054;-51
2022/03/11 05:43:39;;;;;;;15.20;6.65;;;;;;;;;;6065498;23;20011;-54
2022/03/11 05:46:04;;;;;;;11.57;6.22;;;;;;;;;;6065578;23;20023;-50
2022/03/11 05:48:29;;;;;;;10.13;7.32;;;;;;;;;;6065690;23;20052;-51
2022/03/11 05:50:55;;;;;;;12.48;7.30;;;;;;;;;;6067741;23;20010;-54
2022/03/11 05:53:20;;;;;;;14.30;7.60;;;;;;;;;;6065042;23;20026;-52
2022/03/11 05:55:45;;;;;;;12.55;6.07;;;;;;;;;;6067789;23;20036;-53
2022/03/11 05:58:11;;;;;;;8.63;6.72;;;;;;;;;;6065356;23;20027;-48
2022/03/11 06:00:36;;;;;;;12.88;7.60;;;;;;;;;;6067116;23;20007;-52
2022/03/11 06:03:01;;;;;;;9.85;6.68;;;;;;;;;;6064786;23;20047;-52
2022/03/11 06:05:27;;;;;;;10.63;6.20;;;;;;;;;;6067556;23;20007;-53
2022/03/11 06:07:52;;;;;;;10.00;6.40;;;;;;;;;;6065124;23;20936;-54
2022/03/11 06:10:17;;;;;;;10.52;7.10;;;;;;;;;;6066260;23;20031;-51
2022/03/11 06:12:43;;;;;;;11.70;6.32;;;;;;;;;;6065273;23;20364;-53
2022/03/11 06:15:08;;;;;;;11.77;6.05;;;;;;;;;;6067091;23;20023;-52
2022/03/11 06:17:34;;;;;;;9.82;6.60;;;;;;;;;;6063846;23;20512;-52
2022/03/11 06:19:59;;;;;;;11.90;6.55;;;;;;;;;;6067615;23;20082;-50
2022/03/11 06:22:24;;;;;;;9.40;5.78;;;;;;;;;;6038844;23;20051;-50
2022/03/11 06:24:50;;;;;;;11.82;5.55;;;;;;;;;;6066818;23;20062;-54
2022/03/11 06:27:15;;;;;;;9.95;7.03;;;;;;;;;;6064409;23;20045;-51
2022/03/11 06:29:41;;;;;;;10.80;6.20;;;;;;;;;;6065552;23;20006;-53
2022/03/11 06:32:06;;;;;;;13.43;6.15;;;;;;;;;;6066467;23;20063;-53
2022/03/11 06:34:31;;;;;;;10.40;5.47;;;;;;;;;;6064325;23;20007;-50
2022/03/11 06:36:57;;;;;;;8.05;4.97;;;;;;;;;;6065181;23;20540;-51
2022/03/11 06:39:22;;;;;;;8.88;5.40;;;;;;;;;;6066006;23;20023;-51
2022/03/11 06:41:47;;;;;;;12.70;6.88;;;;;;;;;;6065913;23;20007;-55
2022/03/11 06:44:14;;;;;;;9.60;4.85;;;;;;;;;;6066369;23;20102;-53
2022/03/11 06:46:39;;;;;;;11.80;5.93;;;;;;;;;;6065831;23;20039;-53
2022/03/11 06:49:05;;;;;;;14.65;6.68;;;;;;;;;;6066714;23;20022;-52
2022/03/11 06:51:31;;;;;;;9.48;5.22;;;;;;;;;;6065110;23;20023;-51
2022/03/11 06:53:56;;;;;;;13.88;6.38;;;;;;;;;;6065826;23;20023;-49
2022/03/11 06:56:22;;;;;;;9.20;5.78;;;;;;;;;;6064783;23;20108;-52
2022/03/11 06:58:47;;;;;;;12.98;7.15;;;;;;;;;;6066601;23;20066;-51
2022/03/11 07:01:14;;;;;;;10.45;5.55;;;;;;;;;;6063770;23;20015;-54
2022/03/11 07:03:39;;;;;;;10.68;6.00;;;;;;;;;;6066065;23;20021;-53
2022/03/11 07:06:04;;;;;;;10.38;6.18;;;;;;;;;;6064319;23;20257;-51
2022/03/11 07:08:30;;;;;;;8.38;5.95;;;;;;;;;;6065956;23;20018;-50
2022/03/11 07:10:55;;;;;;;10.68;6.22;;;;;;;;;;6064200;23;20031;-54
2022/03/11 07:13:20;;;;;;;14.77;6.07;;;;;;;;;;6040638;23;20011;-51
2022/03/11 07:15:46;;;;;;;10.48;6.38;;;;;;;;;;6064134;23;20040;-55
2022/03/11 07:18:12;;;;;;;9.98;6.38;;;;;;;;;;6066474;23;20015;-50
2022/03/11 07:20:37;;;;;;;9.63;6.22;;;;;;;;;;6063256;23;20512;-53
2022/03/11 07:23:03;;;;;;;12.82;7.45;;;;;;;;;;6067063;23;20022;-53
2022/03/11 07:25:28;;;;;;;11.10;6.97;;;;;;;;;;6063890;23;22633;-51
2022/03/11 07:27:54;;;;;;;12.35;7.22;;;;;;;;;;6065681;23;20025;-53
2022/03/11 07:30:19;;;;;;;18.50;7.75;;;;;;;;;;6063796;23;20034;-53
2022/03/11 07:32:46;;;;;;;14.35;7.05;;;;;;;;;;6060382;23;20011;-51
2022/03/11 07:35:14;;;;;;;12.77;7.57;;;;;;;;;;6060175;23;20097;-53
2022/03/11 07:37:40;;;;;;;13.82;8.82;;;;;;;;;;6061648;23;20038;-53
2022/03/11 07:40:06;;;;;;;16.15;7.28;;;;;;;;;;6065658;23;20026;-52
2022/03/11 07:42:31;;;;;;;15.65;7.82;;;;;;;;;;6062717;23;20007;-53
2022/03/11 07:44:57;;;;;;;10.73;7.05;;;;;;;;;;6064762;23;20015;-50
2022/03/11 07:47:22;;;;;;;13.30;8.13;;;;;;;;;;6062654;23;20034;-52
2022/03/11 07:49:47;;;;;;;16.48;9.77;;;;;;;;;;6065951;23;20018;-54
2022/03/11 07:52:15;;;;;;;14.65;8.18;;;;;;;;;;6062613;23;20076;-47
2022/03/11 07:54:44;;;;;;;13.00;7.80;;;;;;;;;;6066539;23;20014;-52
2022/03/11 07:57:09;;;;;;;12.30;7.60;;;;;;;;;;6062270;23;20022;-52
2022/03/11 07:59:36;;;;;;;14.75;9.00;;;;;;;;;;6064960;23;20011;-48
2022/03/11 08:02:02;;;;;;;14.60;8.27;;;;;;;;;;6062749;23;20022;-50
2022/03/11 08:04:29;;;;;;;17.17;9.05;;;;;;;;;;6065717;23;20014;-50
2022/03/11 08:06:54;;;;;;;13.68;8.55;;;;;;;;;;6035677;23;20019;-50
2022/03/11 08:09:19;;;;;;;12.93;7.20;;;;;;;;;;6062344;23;20110;-49
2022/03/11 08:11:45;;;;;;;14.27;8.02;;;;;;;;;;6063136;23;20040;-51
2022/03/11 08:14:13;;;;;;;13.07;7.43;;;;;;;;;;6062871;23;20035;-50
2022/03/11 08:16:38;;;;;;;10.75;8.27;;;;;;;;;;6065599;23;20109;-52
2022/03/11 08:19:03;;;;;;;16.83;8.73;;;;;;;;;;6062149;23;20015;-49
2022/03/11 08:21:29;;;;;;;13.48;8.48;;;;;;;;;;6059101;23;20038;-47
2022/03/11 08:23:54;;;;;;;13.60;7.28;;;;;;;;;;6064903;23;20038;-55
2022/03/11 08:26:19;;;;;;;17.33;8.48;;;;;;;;;;6064567;23;20019;-51
2022/03/11 08:28:45;;;;;;;13.80;8.10;;;;;;;;;;6069145;23;20077;-51
2022/03/11 08:31:10;;;;;;;12.88;8.73;;;;;;;;;;6064824;23;20015;-48
2022/03/11 08:33:37;;;;;;;11.63;8.20;;;;;;;;;;6067523;23;20015;-51
2022/03/11 08:36:02;;;;;;;12.15;8.63;;;;;;;;;;6066114;23;20019;-50
2022/03/11 08:38:27;;;;;;;12.68;7.10;;;;;;;;;;6064396;23;20668;-51
2022/03/11 08:40:52;;;;;;;13.48;7.45;;;;;;;;;;6041914;23;20011;-53
2022/03/11 08:43:19;;;;;;;10.32;6.93;;;;;;;;;;6065183;23;20076;-52
2022/03/11 08:45:44;;;;;;;12.02;8.15;;;;;;;;;;6063207;23;20011;-48
2022/03/11 08:48:09;;;;;;;16.33;8.00;;;;;;;;;;6061019;23;20559;-54
2022/03/11 08:50:35;;;;;;;10.80;7.07;;;;;;;;;;6064251;23;20007;-52
2022/03/11 08:53:00;;;;;;;14.98;7.80;;;;;;;;;;6061289;23;20034;-51
2022/03/11 08:55:26;;;;;;;12.15;6.85;;;;;;;;;;6063138;23;20011;-53
2022/03/11 08:57:52;;;;;;;11.23;7.68;;;;;;;;;;6060047;23;20027;-53
2022/03/11 09:00:18;;;;;;;15.55;8.07;;;;;;;;;;6062802;23;20029;-53
2022/03/11 09:02:44;;;;;;;11.48;7.50;;;;;;;;;;6061048;23;20018;-50
2022/03/11 09:05:11;;;;;;;16.20;7.22;;;;;;;;;;6063057;23;20030;-51
2022/03/11 09:07:36;;;;;;;17.23;8.13;;;;;;;;;;6061221;23;20046;-50
2022/03/11 09:10:04;;;;;;;13.85;7.88;;;;;;;;;;6058395;23;20019;-50
2022/03/11 09:12:29;;;;;;;10.98;7.65;;;;;;;;;;6062260;23;20047;-54
2022/03/11 09:14:54;;;;;;;12.23;7.80;;;;;;;;;;6061740;23;20015;-50
2022/03/11 09:17:19;;;;;;;12.35;7.05;;;;;;;;;;6062455;23;20026;-51
2022/03/11 09:19:45;;;;;;;14.40;7.15;;;;;;;;;;6064301;23;20047;-50
2022/03/11 09:22:12;;;;;;;13.65;7.90;;;;;;;;;;6060875;23;20067;-49
2022/03/11 09:24:39;;;;;;;9.68;6.82;;;;;;;;;;6062685;23;20014;-52
2022/03/11 09:27:05;;;;;;;20.88;7.57;;;;;;;;;;6054014;23;20018;-53
2022/03/11 09:29:30;;;;;;;15.13;7.55;;;;;;;;;;6057967;23;20006;-51
2022/03/11 09:31:56;;;;;;;15.45;8.23;;;;;;;;;;6055338;23;20021;-49
2022/03/11 09:34:22;;;;;;;10.45;6.82;;;;;;;;;;6057973;23;20070;-51
2022/03/11 09:36:47;;;;;;;11.55;7.20;;;;;;;;;;6064589;23;20034;-55
2022/03/11 09:39:13;;;;;;;12.52;7.53;;;;;;;;;;6062901;23;20026;-53
2022/03/11 09:41:39;;;;;;;14.27;7.38;;;;;;;;;;6063974;23;20051;-50
2022/03/11 09:44:05;;;;;;;9.25;5.95;;;;;;;;;;6062156;23;20074;-54
2022/03/11 09:46:32;;;;;;;14.68;6.78;;;;;;;;;;6066238;23;20018;-49
2022/03/11 09:48:58;;;;;;;9.68;5.45;;;;;;;;;;6067038;23;20026;-49
2022/03/11 09:51:23;;;;;;;13.30;7.32;;;;;;;;;;6066057;23;20038;-52
2022/03/11 09:53:48;;;;;;;13.20;6.38;;;;;;;;;;6066359;23;20018;-54
2022/03/11 09:56:13;;;;;;;12.63;6.93;;;;;;;;;;6065320;23;20027;-53
2022/03/11 09:58:39;;;;;;;20.90;6.50;;;;;;;;;;6066338;23;20022;-52
2022/03/11 10:01:05;;;;;;;14.98;6.88;;;;;;;;;;6065813;23;20015;-54
2022/03/11 10:03:31;;;;;;;9.68;6.30;;;;;;;;;;6066417;23;20015;-51
2022/03/11 10:05:56;;;;;;;8.32;5.30;;;;;;;;;;6064956;23;20018;-52
2022/03/11 10:08:31;;;;;;;11.90;6.63;;;;;;;;;;6066626;23;20015;-55
2022/03/11 10:11:15;;;;;;;10.38;6.38;;;;;;;;;;6026980;23;20035;-51
2022/03/11 10:13:41;;;;;;;10.55;5.70;;;;;;;;;;6006736;23;20027;-53
2022/03/11 10:16:23;;;;;;;10.13;5.60;;;;;;;;;;6010075;23;20003;-48
2022/03/11 10:18:58;;;;;;;13.60;5.65;;;;;;;;;;6005581;23;20020;-51
2022/03/11 10:21:29;;;;;;;9.45;5.15;;;;;;;;;;6009733;23;20028;-53
2022/03/11 10:23:55;;;;;;;8.73;4.85;;;;;;;;;;6004684;23;20087;-53
2022/03/11 10:26:49;;;;;;;4.63;3.92;;;;;;;;;;6009765;23;20016;-50
2022/03/11 10:29:22;;;;;;;7.10;3.97;;;;;;;;;;5988536;23;20055;-51
2022/03/11 10:31:49;;;;;;;10.70;4.07;;;;;;;;;;6010013;23;20458;-52
2022/03/11 10:34:22;;;;;;;10.10;5.65;;;;;;;;;;6007188;23;20024;-52
2022/03/11 10:36:48;;;;;;;7.25;4.68;;;;;;;;;;6010043;23;20035;-53
2022/03/11 10:39:25;;;;;;;7.85;4.20;;;;;;;;;;6009128;23;20045;-48
2022/03/11 10:41:53;;;;;;;7.63;4.57;;;;;;;;;;6008486;23;20071;-50
2022/03/11 10:44:19;;;;;;;7.43;3.97;;;;;;;;;;6009231;23;20044;-49
2022/03/11 10:46:44;;;;;;;6.78;3.90;;;;;;;;;;6008603;23;20098;-48
2022/03/11 10:49:09;;;;;;;6.15;4.53;;;;;;;;;;6009558;23;20027;-52
2022/03/11 10:51:36;;;;;;;9.93;5.72;;;;;;;;;;6008396;23;20015;-53
2022/03/11 10:54:03;;;;;;;6.43;4.60;;;;;;;;;;6009201;23;20034;-49
2022/03/11 10:56:29;;;;;;;8.23;4.22;;;;;;;;;;6007000;23;20012;-49
2022/03/11 10:58:57;;;;;;;15.25;4.82;;;;;;;;;;6009411;23;20015;-50
2022/03/11 11:01:35;;;;;;;8.55;5.22;;;;;;;;;;6007748;23;20369;-52
2022/03/11 11:04:01;;;;;;;8.77;5.95;;;;;;;;;;6009585;23;20035;-50
2022/03/11 11:06:27;;;;;;;7.95;5.13;;;;;;;;;;6007306;23;20027;-51
2022/03/11 11:08:53;;;;;;;13.98;5.57;;;;;;;;;;6006752;23;20022;-54
2022/03/11 11:11:19;;;;;;;11.27;6.35;;;;;;;;;;6065975;23;20559;-52
2022/03/11 11:13:44;;;;;;;12.32;7.20;;;;;;;;;;6063087;23;20101;-50
2022/03/11 11:16:10;;;;;;;14.70;6.70;;;;;;;;;;6065755;23;20019;-53
2022/03/11 11:18:35;;;;;;;10.13;7.28;;;;;;;;;;6064102;23;20531;-53
2022/03/11 11:21:04;;;;;;;12.30;7.15;;;;;;;;;;6066729;23;20015;-51
2022/03/11 11:23:30;;;;;;;13.60;7.40;;;;;;;;;;6064132;23;20316;-53
2022/03/11 11:25:55;;;;;;;14.70;7.43;;;;;;;;;;6065814;23;20031;-54
2022/03/11 11:28:22;;;;;;;11.30;7.38;;;;;;;;;;6057521;23;20330;-52
2022/03/11 11:30:50;;;;;;;28.75;8.07;;;;;;;;;;6064595;23;20022;-54
2022/03/11 11:33:18;;;;;;;13.05;7.47;;;;;;;;;;6060394;23;20112;-49
2022/03/11 11:35:43;;;;;;;10.13;7.15;;;;;;;;;;6066145;23;20007;-49
2022/03/11 11:38:28;;;;;;;14.35;8.10;;;;;;;;;;6063899;23;20565;-52
2022/03/11 11:40:53;;;;;;;14.23;7.45;;;;;;;;;;6065731;23;20022;-52
2022/03/11 11:43:31;;;;;;;15.73;9.20;;;;;;;;;;6064287;23;20019;-53
2022/03/11 11:46:03;;;;;;;20.92;8.23;;;;;;;;;;6064883;23;20014;-54
2022/03/11 11:48:45;;;;;;;16.02;8.77;;;;;;;;;;6063711;23;20026;-52
2022/03/11 11:51:11;;;;;;;17.80;8.20;;;;;;;;;;6065933;23;20030;-50
2022/03/11 11:53:40;;;;;;;10.57;7.50;;;;;;;;;;6059773;23;20021;-51
2022/03/11 11:56:24;;;;;;;14.07;7.93;;;;;;;;;;6067206;23;20086;-51
2022/03/11 11:58:51;;;;;;;11.93;7.75;;;;;;;;;;6062695;23;20011;-50
2022/03/11 12:01:36;;;;;;;14.50;8.80;;;;;;;;;;6039058;23;20229;-50
2022/03/11 12:04:20;;;;;;;10.68;6.35;;;;;;;;;;6063350;23;20035;-51
2022/03/11 12:06:57;;;;;;;13.70;7.28;;;;;;;;;;6062665;23;20014;-51
2022/03/11 12:09:38;;;;;;;11.43;7.45;;;;;;;;;;6065545;23;20372;-52
2022/03/11 12:12:08;;;;;;;15.50;8.30;;;;;;;;;;6063744;23;20019;-50
2022/03/11 12:14:53;;;;;;;10.38;6.60;;;;;;;;;;6066008;23;20023;-52
2022/03/11 12:17:34;;;;;;;10.82;7.82;;;;;;;;;;6065462;23;20026;-49
2022/03/11 12:20:19;;;;;;;16.05;7.25;;;;;;;;;;6063803;23;20478;-52
2022/03/11 12:22:54;;;;;;;11.65;6.85;;;;;;;;;;6065492;23;20010;-50
2022/03/11 12:25:21;;;;;;;14.48;6.95;;;;;;;;;;6065199;23;20014;-49
2022/03/11 12:27:57;;;;;;;15.05;8.05;;;;;;;;;;6065587;23;20023;-53
2022/03/11 12:30:22;;;;;;;13.20;6.68;;;;;;;;;;6065461;23;20011;-52
2022/03/11 12:32:50;;;;;;;10.55;7.78;;;;;;;;;;6063164;23;20015;-53
2022/03/11 12:35:17;;;;;;;10.27;6.75;;;;;;;;;;6060793;23;20022;-52
2022/03/11 12:37:42;;;;;;;9.57;6.32;;;;;;;;;;6046024;23;20027;-52
2022/03/11 12:40:08;;;;;;;13.68;7.57;;;;;;;;;;6059393;23;20550;-52
2022/03/11 12:42:38;;;;;;;11.38;7.18;;;;;;;;;;6062468;23;20003;-52
2022/03/11 12:45:03;;;;;;;9.77;6.50;;;;;;;;;;6065739;23;20444;-53
2022/03/11 12:47:39;;;;;;;8.80;5.75;;;;;;;;;;6062126;23;20090;-48
2022/03/11 12:50:06;;;;;;;10.35;5.75;;;;;;;;;;6037240;23;20022;-51
2022/03/11 12:52:38;;;;;;;7.65;5.47;;;;;;;;;;6039063;23;20014;-52
2022/03/11 12:55:20;;;;;;;10.18;5.05;;;;;;;;;;6062659;23;20023;-52
2022/03/11 12:57:48;;;;;;;11.05;6.22;;;;;;;;;;6060779;23;20019;-50
2022/03/11 13:00:18;;;;;;;7.97;5.78;;;;;;;;;;6063519;23;20073;-50
2022/03/11 13:02:43;;;;;;;8.95;5.72;;;;;;;;;;6063325;23;20011;-51
2022/03/11 13:05:16;;;;;;;8.40;5.70;;;;;;;;;;6065990;23;20034;-52
2022/03/11 13:07:41;;;;;;;12.70;7.03;;;;;;;;;;6065408;23;20120;-48
2022/03/11 13:10:18;;;;;;;7.90;5.43;;;;;;;;;;6061704;23;20031;-48
2022/03/11 13:12:43;;;;;;;9.02;6.32;;;;;;;;;;6066262;23;20066;-50
2022/03/11 13:15:13;;;;;;;9.75;5.55;;;;;;;;;;6064706;23;20015;-49
2022/03/11 13:17:45;;;;;;;8.43;6.63;;;;;;;;;;6066714;23;20308;-51
2022/03/11 13:20:25;;;;;;;8.98;6.30;;;;;;;;;;6065054;23;20046;-50
2022/03/11 13:22:51;;;;;;;8.05;5.35;;;;;;;;;;6041497;23;20018;-49
2022/03/11 13:25:21;;;;;;;8.48;6.65;;;;;;;;;;6063415;23;20015;-62
2022/03/11 13:27:48;;;;;;;9.35;6.53;;;;;;;;;;6062803;23;20021;-48
2022/03/11 13:30:13;;;;;;;13.07;6.43;;;;;;;;;;6065448;23;20015;-49
2022/03/11 13:32:38;;;;;;;13.57;7.43;;;;;;;;;;6064312;23;20018;-48
2022/03/11 13:35:05;;;;;;;9.75;6.20;;;;;;;;;;6041148;23;20050;-48
2022/03/11 13:37:40;;;;;;;19.85;6.25;;;;;;;;;;6058168;23;20018;-54
2022/03/11 13:40:06;;;;;;;13.93;5.95;;;;;;;;;;6036092;23;20756;-50
2022/03/11 13:42:31;;;;;;;9.93;6.32;;;;;;;;;;6037166;23;20010;-51
2022/03/11 13:45:03;;;;;;;8.35;5.57;;;;;;;;;;6061963;23;20063;-51
2022/03/11 13:47:29;;;;;;;9.63;6.68;;;;;;;;;;6062671;23;20019;-49
2022/03/11 13:49:54;;;;;;;10.30;5.75;;;;;;;;;;6059683;23;20492;-48
2022/03/11 13:52:20;;;;;;;12.75;5.65;;;;;;;;;;6062071;23;20042;-52
2022/03/11 13:54:47;;;;;;;9.13;6.10;;;;;;;;;;6060888;23;20414;-50
2022/03/11 13:57:16;;;;;;;8.20;5.40;;;;;;;;;;6062483;23;20086;-49
2022/03/11 13:59:42;;;;;;;9.93;5.80;;;;;;;;;;6060984;23;20010;-52
2022/03/11 14:02:11;;;;;;;10.57;6.18;;;;;;;;;;6063173;23;20026;-47
2022/03/11 14:04:37;;;;;;;8.75;5.50;;;;;;;;;;6060387;23;20019;-52
2022/03/11 14:07:08;;;;;;;9.00;5.20;;;;;;;;;;6063140;23;20041;-52
2022/03/11 14:09:33;;;;;;;11.45;6.32;;;;;;;;;;6059957;23;20019;-52
2022/03/11 14:11:58;;;;;;;10.18;5.25;;;;;;;;;;6062459;23;20043;-50
2022/03/11 14:14:27;;;;;;;7.03;5.43;;;;;;;;;;6059562;23;20026;-51
2022/03/11 14:16:54;;;;;;;12.63;7.13;;;;;;;;;;6062768;23;20037;-51
2022/03/11 14:19:19;;;;;;;12.20;5.88;;;;;;;;;;6060473;23;20070;-48
2022/03/11 14:21:44;;;;;;;9.77;5.95;;;;;;;;;;6063433;23;20018;-48
2022/03/11 14:24:10;;;;;;;8.52;6.18;;;;;;;;;;6057906;23;20015;-48
2022/03/11 14:26:35;;;;;;;11.73;5.90;;;;;;;;;;6057228;23;20011;-52
2022/03/11 14:29:00;;;;;;;9.95;5.97;;;;;;;;;;6063343;23;20752;-49